• Join FlightAware (Why Join?)
  • Login
  • US Flag 
06:09AM EST


 

Airport Tracker/Info


-or-


 

Live Flight TrackerFlight Track Log ✈ UCA4793 ✈ 25-Apr-2013 ✈ KSYR - KCLE

Flight Track Log - Related Links

Times and Time Zones

All times are in EDT time to prevent confusion due to time zone crossing. See the UCA4793 flight status page for this flight to view local times or setup timezone preferences in your user account.

Time Position Orientation Groundspeed Altitude Reporting Facility
EDT Latitude Longitude Course Direction KTS MPH feet Rate Location/Type
03:38PM 43.1078 -76.1233 291° West 103 119 1,000  Level Boston Center
03:39PM 43.1089 -76.1575 273° West 122 140 1,600 1,020 Climbing Boston Center
03:40PM 43.1069 -76.2144 267° West 171 197 2,700 1,320 Climbing Boston Center
03:41PM 43.1069 -76.2797 270° West 177 204 4,200 1,500 Climbing Boston Center
03:42PM 43.1083 -76.3567 271° West 177 204 6,000 1,620 Climbing Boston Center
03:44PM 43.1792 -76.3189 291° West  Level FlightAware Approximate
03:44PM 43.1150 -76.4844 274° West 179 206 9,400  Level Cleveland Center
03:45PM 43.1089 -76.5475 262° West 179 206 11,100 1,680 Climbing Cleveland Center
03:46PM 43.0900 -76.6028 245° Southwest 174 200 12,800 1,740 Climbing Cleveland Center
03:47PM 43.0647 -76.6614 239° Southwest 174 200 14,600 1,500 Climbing Cleveland Center
03:48PM 43.0481 -76.7164 247° West 174 200 15,900 600 Climbing Cleveland Center
03:49PM 43.0233 -76.7889 245° Southwest 188 216 15,900  Level Cleveland Center
03:50PM 42.9947 -76.8731 245° Southwest 219 252 15,900  Level Cleveland Center
03:51PM 42.9681 -76.9539 246° West 232 267 15,900  Level Cleveland Center
03:52PM 42.9394 -77.0350 244° Southwest 237 273 15,900  Level Cleveland Center
03:53PM 42.9106 -77.1133 243° Southwest 237 273 15,900  Level Cleveland Center
03:54PM 42.8817 -77.2000 246° West 237 273 15,900  Level Cleveland Center
03:55PM 42.8547 -77.2778 245° Southwest 237 273 15,900  Level Cleveland Center
03:56PM 42.8258 -77.3586 244° Southwest 237 273 15,900  Level Cleveland Center
03:57PM 42.7989 -77.4364 245° Southwest 237 273 15,900  Level Cleveland Center
03:58PM 42.7717 -77.5169 245° Southwest 237 273 15,900  Level Cleveland Center
03:59PM 42.7425 -77.5947 243° Southwest 237 273 15,900  Level Cleveland Center
04:00PM 42.7114 -77.6811 244° Southwest 237 273 16,000  Climbing Cleveland Center
04:01PM 42.6861 -77.7500 243° Southwest 237 273 16,000  Level Cleveland Center
04:02PM 42.6589 -77.8333 246° West 237 273 16,000  Level Cleveland Center
04:03PM 42.6294 -77.9136 244° Southwest 232 267 16,000  Level Cleveland Center
04:04PM 42.6019 -77.9908 244° Southwest 232 267 16,000  Level Cleveland Center
04:06PM 42.5504 -78.0797 245° Southwest  Level FlightAware Approximate
04:06PM 42.5472 -78.1481 245° Southwest 237 273 16,000  Level Cleveland Center
04:07PM 42.5194 -78.2253 244° Southwest 237 273 16,000 600 Level Cleveland Center
04:08PM 42.4939 -78.2939 243° Southwest 231 266 17,300 960 Climbing Cleveland Center
04:09PM 42.4722 -78.3567 245° Southwest 217 250 18,000 300 Climbing Cleveland Center
04:10PM 42.4464 -78.4250 243° Southwest 203 234 18,000  Level Cleveland Center
04:11PM 42.4186 -78.5019 244° Southwest 210 242 18,000  Level Cleveland Center
04:12PM 42.3906 -78.5758 243° Southwest 221 254 18,000  Level Cleveland Center
04:13PM 42.3650 -78.6525 246° West 221 254 18,000  Level Cleveland Center
04:14PM 42.3369 -78.7264 243° Southwest 221 254 18,000  Level Cleveland Center
04:15PM 42.3069 -78.8031 242° Southwest 221 254 18,000  Level Cleveland Center
04:16PM 42.2808 -78.8797 245° Southwest 221 254 18,000  Level Cleveland Center
04:17PM 42.2547 -78.9478 243° Southwest 226 260 18,000  Level Cleveland Center
04:18PM 42.2267 -79.0186 242° Southwest 226 260 18,000  Level Cleveland Center
04:19PM 42.1983 -79.0922 243° Southwest 221 254 18,000  Level Cleveland Center
04:20PM 42.1700 -79.1628 242° Southwest 221 254 18,000  Level Cleveland Center
04:21PM 42.1375 -79.2336 238° Southwest 221 254 18,000  Level Cleveland Center
04:22PM 42.1050 -79.3042 238° Southwest 226 260 18,000  Level Cleveland Center
04:23PM 42.0725 -79.3719 237° Southwest 226 260 18,000  Level Cleveland Center
04:24PM 42.0378 -79.4425 236° Southwest 226 260 18,000  Level Cleveland Center
04:25PM 42.0072 -79.5128 240° Southwest 226 260 18,000  Level Cleveland Center
04:26PM 41.9722 -79.5806 235° Southwest 231 266 18,000  Level Cleveland Center
04:27PM 41.9417 -79.6536 241° Southwest 231 266 18,000 -240 Level Cleveland Center
04:28PM 41.9025 -79.7294 235° Southwest 236 272 17,600 -540 Descending Cleveland Center
04:29PM 41.8678 -79.8081 239° Southwest 230 265 17,000 -600 Descending Cleveland Center
04:30PM 41.8328 -79.8808 237° Southwest 237 273 16,400 -600 Descending Cleveland Center
04:31PM 41.8144 -79.9619 253° West 237 273 15,900 -300 Descending Cleveland Center
04:32PM 41.7942 -80.0456 252° West 237 273 15,900 -300 Level Cleveland Center
04:33PM 41.7756 -80.1267 253° West 231 266 15,300 -600 Descending Cleveland Center
04:34PM 41.7550 -80.2103 252° West 238 274 14,700 -600 Descending Cleveland Center
04:35PM 41.7408 -80.2964 258° West 244 281 14,100 -600 Descending Cleveland Center
04:36PM 41.7181 -80.3800 250° West 244 281 13,500 -600 Descending Cleveland Center
04:37PM 41.6972 -80.4636 252° West 244 281 12,900 -600 Descending Cleveland Center
04:38PM 41.6786 -80.5386 252° West 244 281 12,400 -600 Descending Cleveland Center
04:39PM 41.6597 -80.6108 251° West 238 274 11,700 -660 Descending Cleveland Center
04:40PM 41.6389 -80.6886 250° West 228 262 11,100 -480 Descending Cleveland Center
04:41PM 41.6200 -80.7608 251° West 223 257 10,800 -540 Descending Cleveland Center
04:42PM 41.6033 -80.8331 253° West 210 242 10,100 -720 Descending Cleveland Center
04:43PM 41.5844 -80.8997 249° West 205 236 9,400 -600 Descending Cleveland Center
04:44PM 41.5778 -80.9800 264° West 205 236 9,000 -240 Descending Cleveland Center
04:45PM 41.5714 -81.0522 263° West 187 215 9,000  Level Cleveland Center
04:46PM 41.5669 -81.1189 265° West 195 224 9,000  Level Cleveland Center
04:47PM 41.5603 -81.1992 264° West 204 235 9,000 -300 Level Cleveland Center
04:48PM 41.5472 -81.2767 257° West 221 254 8,500 -720 Descending Cleveland Center
04:49PM 41.5425 -81.3544 265° West 216 249 7,600 -1,080 Descending Cleveland Center
04:50PM 41.5378 -81.4236 265° West 211 243 6,400 -1,320 Descending Cleveland Center
04:51PM 41.5331 -81.5014 265° West 211 243 5,100 -1,260 Descending Cleveland Center
04:52PM 41.5306 -81.5678 267° West 201 231 4,000 -600 Descending Cleveland Center
04:53PM 41.5131 -81.6397 252° West 207 238 4,000 -300 Level Cleveland Center
04:54PM 41.4856 -81.6975 238° Southwest 186 214 3,500 -780 Descending Cleveland Center
04:55PM 41.4433 -81.7439 219° Southwest 163 188 2,400 -840 Descending Cleveland Center
04:56PM 41.4158 -81.7847 228° Southwest 141 162 1,700 -720 Descending Cleveland Center
04:57PM 41.4153 -81.8292 269° West 108 124 900 -840 Descending Cleveland Center
04:59PM 41.4000 -81.8500 252° West  Level FlightAware Approximate
05:06PM 41.4094 -81.8547 252° West  Level Estimated